createdAt,value
2023-05-14T00:05:14.915Z,99.90
2023-05-14T00:07:41.689Z,99.90
2023-05-14T00:10:43.664Z,99.90
2023-05-14T00:13:11.752Z,99.90
2023-05-14T00:15:38.438Z,99.90
2023-05-14T00:18:06.335Z,99.90
2023-05-14T00:20:47.594Z,99.90
2023-05-14T00:23:14.287Z,99.90
2023-05-14T00:25:46.226Z,99.90
2023-05-14T00:28:48.338Z,99.90
2023-05-14T00:31:34.853Z,99.90
2023-05-14T00:34:10.392Z,99.90
2023-05-14T00:39:28.049Z,99.90
2023-05-14T00:41:57.414Z,99.90
2023-05-14T00:44:24.228Z,99.90
2023-05-14T00:49:59.618Z,99.90
2023-05-14T00:52:51.119Z,99.90
2023-05-14T00:55:22.400Z,99.90
2023-05-14T00:57:51.078Z,99.90
2023-05-14T01:00:23.397Z,99.90
2023-05-14T01:02:53.331Z,99.90
2023-05-14T01:05:32.637Z,99.90
2023-05-14T01:11:59.885Z,99.90
2023-05-14T01:15:15.168Z,99.90
2023-05-14T01:18:20.412Z,99.90
2023-05-14T01:21:01.751Z,99.90
2023-05-14T01:26:38.872Z,99.90
2023-05-14T01:29:19.093Z,99.90
2023-05-14T01:34:55.581Z,99.90
2023-05-14T01:37:44.684Z,99.90
2023-05-14T01:40:11.853Z,99.90
2023-05-14T01:42:57.416Z,99.90
2023-05-14T01:48:20.017Z,99.90
2023-05-14T01:50:49.612Z,99.90
2023-05-14T01:53:25.433Z,99.90
2023-05-14T01:55:52.217Z,99.90
2023-05-14T01:59:11.316Z,99.90
2023-05-14T02:02:02.650Z,99.90
2023-05-14T02:04:29.433Z,99.90
2023-05-14T02:07:24.007Z,99.90
2023-05-14T02:09:51.773Z,99.90
2023-05-14T02:12:27.684Z,99.90
2023-05-14T02:15:59.978Z,99.90
2023-05-14T02:18:26.724Z,99.90
2023-05-14T02:21:02.262Z,99.90
2023-05-14T02:23:41.628Z,99.90
2023-05-14T02:26:10.265Z,99.90
2023-05-14T02:28:37.081Z,99.90
2023-05-14T02:31:06.728Z,99.90
2023-05-14T02:33:36.430Z,99.90
2023-05-14T02:36:03.314Z,99.90
2023-05-14T02:38:31.469Z,99.90
2023-05-14T02:41:33.404Z,99.90
2023-05-14T02:44:06.244Z,99.90
2023-05-14T02:46:36.043Z,99.90
2023-05-14T02:57:18.702Z,99.90
2023-05-14T03:00:12.475Z,99.90
2023-05-14T03:09:17.116Z,99.90
2023-05-14T03:11:46.624Z,99.90
2023-05-14T03:14:22.524Z,99.90
2023-05-14T03:16:49.441Z,99.90
2023-05-14T03:19:19.098Z,99.90
2023-05-14T03:21:45.880Z,99.90
2023-05-14T03:24:30.697Z,99.90
2023-05-14T03:26:57.367Z,99.90
2023-05-14T03:29:47.558Z,99.90
2023-05-14T03:32:14.811Z,99.90
2023-05-14T03:34:47.385Z,99.90
2023-05-14T03:37:25.076Z,99.90
2023-05-14T03:39:51.827Z,99.90
2023-05-14T03:42:36.067Z,99.90
2023-05-14T03:45:15.068Z,99.90
2023-05-14T03:48:10.900Z,99.90
2023-05-14T03:50:43.828Z,99.90
2023-05-14T03:53:29.091Z,99.90
2023-05-14T03:56:10.870Z,99.90
2023-05-14T04:01:59.445Z,99.90
2023-05-14T04:04:26.263Z,99.90
2023-05-14T04:06:53.021Z,99.90
2023-05-14T04:09:25.473Z,99.90
2023-05-14T04:12:01.075Z,99.90
2023-05-14T04:14:51.615Z,99.90
2023-05-14T04:17:30.604Z,99.90
2023-05-14T04:20:20.997Z,99.90
2023-05-14T04:32:01.807Z,99.90
2023-05-14T04:34:43.957Z,99.90
2023-05-14T04:37:22.030Z,99.90
2023-05-14T04:42:56.542Z,99.90
2023-05-14T04:45:23.905Z,99.90
2023-05-14T04:48:08.902Z,99.90
2023-05-14T04:50:44.873Z,99.90
2023-05-14T04:53:13.827Z,99.90
2023-05-14T04:55:55.869Z,99.90
2023-05-14T05:12:05.655Z,99.90
2023-05-14T05:14:38.529Z,99.90
2023-05-14T05:20:17.614Z,99.90
2023-05-14T05:22:50.037Z,99.90
2023-05-14T05:25:16.720Z,99.90
2023-05-14T05:27:45.524Z,99.90
2023-05-14T05:30:18.431Z,99.90
2023-05-14T05:32:47.738Z,99.90
2023-05-14T05:35:20.297Z,99.90
2023-05-14T05:37:52.886Z,99.90
2023-05-14T05:40:22.535Z,99.90
2023-05-14T05:42:49.612Z,99.90
2023-05-14T05:55:29.548Z,99.90
2023-05-14T06:00:51.407Z,99.90
2023-05-14T06:03:21.374Z,99.90
2023-05-14T06:09:29.198Z,99.90
2023-05-14T06:11:56.158Z,99.90
2023-05-14T06:14:25.874Z,99.90
2023-05-14T06:17:19.658Z,99.90
2023-05-14T06:19:46.438Z,99.90
2023-05-14T06:22:22.297Z,99.90
2023-05-14T06:25:14.720Z,99.90
2023-05-14T06:28:03.411Z,99.90
2023-05-14T06:30:30.133Z,99.90
2023-05-14T06:33:03.197Z,99.90
2023-05-14T06:35:34.132Z,99.90
2023-05-14T06:38:00.800Z,99.90
2023-05-14T06:40:30.426Z,99.90
2023-05-14T06:43:03.863Z,99.90
2023-05-14T06:45:37.795Z,99.90
2023-05-14T06:48:10.266Z,99.90
2023-05-14T06:50:37.077Z,99.90
2023-05-14T06:53:03.823Z,99.90
2023-05-14T06:58:29.438Z,99.90
2023-05-14T07:01:08.568Z,99.90
2023-05-14T07:03:38.445Z,99.90
2023-05-14T07:06:05.533Z,99.90
2023-05-14T07:09:10.313Z,99.90
2023-05-14T07:12:07.536Z,99.90
2023-05-14T07:14:59.180Z,99.90
2023-05-14T07:17:38.751Z,99.90
2023-05-14T10:09:36.528Z,86.50
2023-05-14T10:15:42.732Z,87.20
2023-05-14T11:01:15.967Z,73.90
2023-05-14T11:13:22.534Z,71.40
2023-05-14T11:15:50.366Z,66.40
2023-05-14T11:31:46.386Z,65.50
2023-05-14T12:42:44.495Z,58.20
2023-05-14T13:44:02.121Z,60.60
2023-05-14T13:54:51.486Z,61.20
2023-05-14T13:57:19.134Z,59.30
2023-05-14T13:59:50.389Z,59.20
2023-05-14T14:05:47.305Z,59.00
2023-05-14T14:11:40.649Z,58.30
2023-05-14T14:14:09.794Z,58.10
2023-05-14T14:16:36.630Z,57.10
2023-05-14T14:19:07.042Z,55.20
2023-05-14T14:21:43.217Z,57.20
2023-05-14T14:24:12.899Z,56.40
2023-05-14T14:26:41.924Z,55.30
2023-05-14T14:29:15.011Z,56.80
2023-05-14T14:31:42.053Z,57.90
2023-05-14T14:34:08.989Z,57.20
2023-05-14T14:36:41.234Z,57.90
2023-05-14T14:39:09.371Z,57.60
2023-05-14T14:41:39.475Z,59.00
2023-05-14T14:44:15.380Z,60.20
2023-05-14T14:46:47.263Z,61.20
2023-05-14T14:49:14.059Z,58.60
2023-05-14T14:54:28.480Z,58.50
2023-05-14T14:57:00.008Z,60.40
2023-05-14T14:59:27.644Z,60.20
2023-05-14T15:01:57.245Z,60.50
2023-05-14T15:04:38.683Z,61.70
2023-05-14T15:07:16.358Z,62.70
2023-05-14T15:09:45.085Z,63.80
2023-05-14T15:12:20.595Z,64.20
2023-05-14T15:14:55.939Z,63.00
2023-05-14T15:17:22.777Z,64.30
2023-05-14T15:19:52.705Z,65.10
2023-05-14T15:22:27.458Z,65.90
2023-05-14T15:24:59.814Z,64.90
2023-05-14T15:27:28.658Z,66.10
2023-05-14T15:29:59.345Z,70.50
2023-05-14T15:32:39.300Z,72.50
2023-05-14T15:35:14.303Z,73.20
2023-05-14T15:37:43.583Z,74.80
2023-05-14T15:40:11.499Z,74.50
2023-05-14T15:42:42.525Z,75.20
2023-05-14T15:45:10.860Z,75.60
2023-05-14T15:47:37.693Z,75.60
2023-05-14T15:50:10.588Z,75.10
2023-05-14T15:52:44.760Z,76.00
2023-05-14T15:55:11.665Z,76.70
2023-05-14T15:57:42.947Z,77.90
2023-05-14T16:00:12.992Z,77.80
2023-05-14T16:02:51.635Z,77.80
2023-05-14T16:05:18.600Z,77.90
2023-05-14T16:07:45.980Z,77.60
2023-05-14T16:10:13.021Z,77.80
2023-05-14T16:13:18.366Z,78.60
2023-05-14T16:16:12.409Z,78.80
2023-05-14T16:21:52.524Z,79.80
2023-05-14T16:24:28.530Z,80.10
2023-05-14T16:26:58.332Z,80.30
2023-05-14T16:29:31.199Z,80.50
2023-05-14T16:32:01.011Z,80.00
2023-05-14T16:34:29.078Z,80.30
2023-05-14T16:36:56.366Z,80.10
2023-05-14T16:39:35.640Z,80.30
2023-05-14T16:42:10.006Z,79.40
2023-05-14T16:44:43.039Z,79.70
2023-05-14T16:47:29.912Z,80.20
2023-05-14T16:50:09.418Z,79.70
2023-05-14T16:52:37.527Z,79.00
2023-05-14T16:55:04.778Z,80.20
2023-05-14T16:57:41.740Z,80.90
2023-05-14T17:00:10.277Z,79.90
2023-05-14T17:02:38.340Z,80.80
2023-05-14T17:05:06.105Z,82.90
2023-05-14T17:07:35.172Z,82.70
2023-05-14T17:10:02.217Z,82.10
2023-05-14T17:12:28.938Z,83.00
2023-05-14T17:15:08.432Z,83.10
2023-05-14T17:17:37.698Z,84.10
2023-05-14T17:20:06.867Z,84.20
2023-05-14T17:22:34.634Z,84.00
2023-05-14T17:25:39.315Z,85.00
2023-05-14T17:28:06.137Z,85.40
2023-05-14T17:30:33.083Z,85.60
2023-05-14T17:33:00.027Z,86.40
2023-05-14T17:35:27.090Z,87.20
2023-05-14T17:37:53.939Z,87.60
2023-05-14T17:40:20.639Z,87.10
2023-05-14T17:42:48.423Z,88.30
2023-05-14T17:45:15.144Z,88.70
2023-05-14T17:47:42.017Z,89.60
2023-05-14T17:50:09.089Z,90.00
2023-05-14T17:52:35.841Z,90.10
2023-05-14T17:55:02.706Z,90.90
2023-05-14T17:57:29.652Z,91.10
2023-05-14T17:59:56.322Z,91.00
2023-05-14T18:02:23.116Z,91.00
2023-05-14T18:04:49.983Z,90.90
2023-05-14T18:07:16.831Z,91.60
2023-05-14T18:09:43.964Z,92.90
2023-05-14T18:12:11.032Z,92.70
2023-05-14T18:14:38.929Z,93.00
2023-05-14T18:17:05.838Z,93.80
2023-05-14T18:19:32.710Z,92.70
2023-05-14T18:21:59.464Z,93.00
2023-05-14T18:24:26.185Z,93.10
2023-05-14T18:26:55.466Z,92.50
2023-05-14T18:29:22.257Z,92.00
2023-05-14T18:31:48.967Z,93.10
2023-05-14T18:34:15.689Z,92.20
2023-05-14T18:36:42.511Z,91.60
2023-05-14T18:39:09.552Z,93.20
2023-05-14T18:41:36.216Z,93.00
2023-05-14T18:44:02.967Z,93.40
2023-05-14T18:46:30.126Z,93.60
2023-05-14T18:48:56.864Z,93.30
2023-05-14T18:51:23.745Z,94.10
2023-05-14T18:53:50.476Z,91.30
2023-05-14T18:56:17.181Z,91.80
2023-05-14T18:58:43.959Z,92.60
2023-05-14T19:01:10.768Z,93.10
2023-05-14T19:03:37.743Z,93.10
2023-05-14T19:06:06.646Z,93.50
2023-05-14T19:08:33.447Z,94.50
2023-05-14T19:11:00.191Z,93.10
2023-05-14T19:13:56.164Z,92.50
2023-05-14T19:16:23.028Z,93.00
2023-05-14T19:18:50.355Z,93.20
2023-05-14T19:21:17.133Z,91.60
2023-05-14T19:23:43.856Z,89.10
2023-05-14T19:26:21.873Z,88.80
2023-05-14T19:28:48.591Z,88.60
2023-05-14T19:31:15.343Z,89.40
2023-05-14T19:33:44.390Z,89.60
2023-05-14T19:36:13.686Z,89.10
2023-05-14T19:39:13.849Z,89.50
2023-05-14T19:45:21.763Z,88.90
2023-05-14T19:55:38.968Z,88.30
2023-05-14T19:58:16.191Z,87.70
2023-05-14T20:01:07.426Z,88.70
2023-05-14T20:04:10.275Z,89.00
2023-05-14T20:06:55.488Z,89.20
2023-05-14T21:20:37.320Z,99.90
2023-05-14T21:23:07.211Z,99.90
2023-05-14T21:52:07.879Z,99.90
2023-05-14T21:54:40.977Z,99.90
2023-05-14T21:57:34.268Z,99.90
2023-05-14T22:00:38.846Z,99.90
2023-05-14T22:03:14.833Z,99.90
2023-05-14T22:05:47.712Z,99.90
2023-05-14T22:08:27.886Z,99.90
2023-05-14T22:11:03.998Z,99.90
2023-05-14T22:18:55.749Z,99.90
2023-05-14T22:21:33.487Z,99.90
2023-05-14T22:24:11.512Z,99.90
2023-05-14T22:26:44.302Z,99.90
2023-05-14T22:29:17.890Z,99.90
2023-05-14T22:31:44.737Z,99.90
2023-05-14T22:34:14.527Z,99.90
2023-05-14T22:36:44.286Z,99.90
2023-05-14T22:39:20.203Z,99.90
2023-05-14T22:41:47.112Z,99.90
2023-05-14T22:44:20.279Z,99.90
2023-05-14T22:56:44.389Z,99.90
2023-05-14T23:41:22.315Z,99.90
